sensor_id;sensor_type;location;lat;lon;timestamp;P1;durP1;ratioP1;P2;durP2;ratioP2
7233;SDS011;3658;47.992;10.158;2023-05-23T00:02:08;3.40;;;3.10;;
7233;SDS011;3658;47.992;10.158;2023-05-23T00:04:38;3.80;;;3.40;;
7233;SDS011;3658;47.992;10.158;2023-05-23T00:07:06;3.53;;;3.23;;
7233;SDS011;3658;47.992;10.158;2023-05-23T00:09:33;2.90;;;2.70;;
7233;SDS011;3658;47.992;10.158;2023-05-23T00:12:00;2.97;;;2.77;;
7233;SDS011;3658;47.992;10.158;2023-05-23T00:14:27;3.60;;;3.30;;
7233;SDS011;3658;47.992;10.158;2023-05-23T00:16:57;3.30;;;3.00;;
7233;SDS011;3658;47.992;10.158;2023-05-23T00:19:25;3.17;;;2.87;;
7233;SDS011;3658;47.992;10.158;2023-05-23T00:21:53;3.33;;;3.03;;
7233;SDS011;3658;47.992;10.158;2023-05-23T00:24:22;2.90;;;2.70;;
7233;SDS011;3658;47.992;10.158;2023-05-23T00:26:49;3.23;;;2.97;;
7233;SDS011;3658;47.992;10.158;2023-05-23T00:29:16;3.43;;;3.13;;
7233;SDS011;3658;47.992;10.158;2023-05-23T00:31:44;3.50;;;3.20;;
7233;SDS011;3658;47.992;10.158;2023-05-23T00:34:11;3.03;;;2.83;;
7233;SDS011;3658;47.992;10.158;2023-05-23T00:36:38;3.40;;;3.10;;
7233;SDS011;3658;47.992;10.158;2023-05-23T00:39:07;2.80;;;2.60;;
7233;SDS011;3658;47.992;10.158;2023-05-23T00:41:41;2.90;;;2.60;;
7233;SDS011;3658;47.992;10.158;2023-05-23T00:44:07;2.73;;;2.53;;
7233;SDS011;3658;47.992;10.158;2023-05-23T00:46:35;3.37;;;3.07;;
7233;SDS011;3658;47.992;10.158;2023-05-23T00:49:01;3.20;;;2.90;;
7233;SDS011;3658;47.992;10.158;2023-05-23T00:51:29;2.60;;;2.40;;
7233;SDS011;3658;47.992;10.158;2023-05-23T00:53:56;3.03;;;2.73;;
7233;SDS011;3658;47.992;10.158;2023-05-23T00:56:26;2.97;;;2.77;;
7233;SDS011;3658;47.992;10.158;2023-05-23T00:58:55;2.70;;;2.50;;
7233;SDS011;3658;47.992;10.158;2023-05-23T01:01:22;2.90;;;2.70;;
7233;SDS011;3658;47.992;10.158;2023-05-23T01:03:49;2.63;;;2.43;;
7233;SDS011;3658;47.992;10.158;2023-05-23T01:06:16;3.17;;;2.87;;
7233;SDS011;3658;47.992;10.158;2023-05-23T01:08:43;2.90;;;2.70;;
7233;SDS011;3658;47.992;10.158;2023-05-23T01:11:11;2.87;;;2.67;;
7233;SDS011;3658;47.992;10.158;2023-05-23T01:13:50;2.80;;;2.60;;
7233;SDS011;3658;47.992;10.158;2023-05-23T01:16:26;2.90;;;2.67;;
7233;SDS011;3658;47.992;10.158;2023-05-23T01:18:58;2.70;;;2.50;;
7233;SDS011;3658;47.992;10.158;2023-05-23T01:21:32;3.10;;;2.80;;
7233;SDS011;3658;47.992;10.158;2023-05-23T01:24:11;2.90;;;2.60;;
7233;SDS011;3658;47.992;10.158;2023-05-23T01:26:58;2.47;;;2.27;;
7233;SDS011;3658;47.992;10.158;2023-05-23T01:29:33;2.73;;;2.53;;
7233;SDS011;3658;47.992;10.158;2023-05-23T01:32:04;2.30;;;2.13;;
7233;SDS011;3658;47.992;10.158;2023-05-23T01:34:34;2.60;;;2.40;;
7233;SDS011;3658;47.992;10.158;2023-05-23T01:37:01;2.60;;;2.40;;
7233;SDS011;3658;47.992;10.158;2023-05-23T01:39:33;2.80;;;2.60;;
7233;SDS011;3658;47.992;10.158;2023-05-23T01:42:00;2.70;;;2.50;;
7233;SDS011;3658;47.992;10.158;2023-05-23T01:44:28;3.00;;;2.70;;
7233;SDS011;3658;47.992;10.158;2023-05-23T01:46:56;2.70;;;2.47;;
7233;SDS011;3658;47.992;10.158;2023-05-23T01:49:23;2.67;;;2.47;;
7233;SDS011;3658;47.992;10.158;2023-05-23T01:51:51;2.70;;;2.50;;
7233;SDS011;3658;47.992;10.158;2023-05-23T01:54:19;2.67;;;2.47;;
7233;SDS011;3658;47.992;10.158;2023-05-23T01:56:46;2.87;;;2.47;;
7233;SDS011;3658;47.992;10.158;2023-05-23T01:59:13;2.77;;;2.53;;
7233;SDS011;3658;47.992;10.158;2023-05-23T02:01:40;2.40;;;2.20;;
7233;SDS011;3658;47.992;10.158;2023-05-23T02:04:09;2.50;;;2.30;;
7233;SDS011;3658;47.992;10.158;2023-05-23T02:06:36;2.53;;;2.33;;
7233;SDS011;3658;47.992;10.158;2023-05-23T02:09:02;2.53;;;2.33;;
7233;SDS011;3658;47.992;10.158;2023-05-23T02:11:29;2.43;;;2.23;;
7233;SDS011;3658;47.992;10.158;2023-05-23T02:13:56;2.43;;;2.23;;
7233;SDS011;3658;47.992;10.158;2023-05-23T02:16:23;2.63;;;2.43;;
7233;SDS011;3658;47.992;10.158;2023-05-23T02:18:50;2.73;;;2.53;;
7233;SDS011;3658;47.992;10.158;2023-05-23T02:21:21;2.40;;;2.20;;
7233;SDS011;3658;47.992;10.158;2023-05-23T02:23:48;2.40;;;2.20;;
7233;SDS011;3658;47.992;10.158;2023-05-23T02:26:15;2.77;;;2.57;;
7233;SDS011;3658;47.992;10.158;2023-05-23T02:28:41;2.47;;;2.27;;
7233;SDS011;3658;47.992;10.158;2023-05-23T02:31:09;2.50;;;2.30;;
7233;SDS011;3658;47.992;10.158;2023-05-23T02:33:36;2.67;;;2.47;;
7233;SDS011;3658;47.992;10.158;2023-05-23T02:36:03;2.03;;;1.93;;
7233;SDS011;3658;47.992;10.158;2023-05-23T02:38:32;2.57;;;2.37;;
7233;SDS011;3658;47.992;10.158;2023-05-23T02:40:58;2.20;;;2.00;;
7233;SDS011;3658;47.992;10.158;2023-05-23T02:43:25;2.33;;;2.20;;
7233;SDS011;3658;47.992;10.158;2023-05-23T02:45:52;2.23;;;2.07;;
7233;SDS011;3658;47.992;10.158;2023-05-23T02:48:19;2.47;;;2.27;;
7233;SDS011;3658;47.992;10.158;2023-05-23T02:50:46;2.20;;;2.00;;
7233;SDS011;3658;47.992;10.158;2023-05-23T02:53:13;2.60;;;2.40;;
7233;SDS011;3658;47.992;10.158;2023-05-23T02:55:41;2.43;;;2.23;;
7233;SDS011;3658;47.992;10.158;2023-05-23T02:58:08;2.40;;;2.20;;
7233;SDS011;3658;47.992;10.158;2023-05-23T03:00:35;2.10;;;1.90;;
7233;SDS011;3658;47.992;10.158;2023-05-23T03:03:02;2.30;;;2.10;;
7233;SDS011;3658;47.992;10.158;2023-05-23T03:05:28;2.50;;;2.30;;
7233;SDS011;3658;47.992;10.158;2023-05-23T03:07:55;2.30;;;2.10;;
7233;SDS011;3658;47.992;10.158;2023-05-23T03:10:22;2.77;;;2.20;;
7233;SDS011;3658;47.992;10.158;2023-05-23T03:12:50;2.27;;;2.07;;
7233;SDS011;3658;47.992;10.158;2023-05-23T03:15:17;2.40;;;2.20;;
7233;SDS011;3658;47.992;10.158;2023-05-23T03:17:44;2.30;;;2.10;;
7233;SDS011;3658;47.992;10.158;2023-05-23T03:20:10;2.33;;;2.13;;
7233;SDS011;3658;47.992;10.158;2023-05-23T03:22:39;2.10;;;2.00;;
7233;SDS011;3658;47.992;10.158;2023-05-23T03:25:07;2.23;;;2.03;;
7233;SDS011;3658;47.992;10.158;2023-05-23T03:27:34;2.30;;;2.10;;
7233;SDS011;3658;47.992;10.158;2023-05-23T03:30:03;1.90;;;1.80;;
7233;SDS011;3658;47.992;10.158;2023-05-23T03:32:30;2.10;;;2.00;;
7233;SDS011;3658;47.992;10.158;2023-05-23T03:34:57;2.13;;;2.00;;
7233;SDS011;3658;47.992;10.158;2023-05-23T03:37:23;2.03;;;1.93;;
7233;SDS011;3658;47.992;10.158;2023-05-23T03:39:50;1.97;;;1.87;;
7233;SDS011;3658;47.992;10.158;2023-05-23T03:42:17;2.20;;;2.00;;
7233;SDS011;3658;47.992;10.158;2023-05-23T03:44:44;2.43;;;2.23;;
7233;SDS011;3658;47.992;10.158;2023-05-23T03:47:12;1.97;;;1.87;;
7233;SDS011;3658;47.992;10.158;2023-05-23T03:49:39;2.23;;;2.03;;
7233;SDS011;3658;47.992;10.158;2023-05-23T03:52:05;2.43;;;2.23;;
7233;SDS011;3658;47.992;10.158;2023-05-23T03:54:32;2.23;;;2.07;;
7233;SDS011;3658;47.992;10.158;2023-05-23T03:56:59;2.30;;;2.10;;
7233;SDS011;3658;47.992;10.158;2023-05-23T03:59:26;1.90;;;1.80;;
7233;SDS011;3658;47.992;10.158;2023-05-23T04:01:53;2.00;;;1.90;;
7233;SDS011;3658;47.992;10.158;2023-05-23T04:04:24;2.00;;;1.90;;
7233;SDS011;3658;47.992;10.158;2023-05-23T04:06:50;2.50;;;2.30;;
7233;SDS011;3658;47.992;10.158;2023-05-23T04:09:17;2.40;;;2.20;;
7233;SDS011;3658;47.992;10.158;2023-05-23T04:11:44;1.80;;;1.70;;
7233;SDS011;3658;47.992;10.158;2023-05-23T04:14:11;1.90;;;1.80;;
7233;SDS011;3658;47.992;10.158;2023-05-23T04:16:38;2.00;;;1.90;;
7233;SDS011;3658;47.992;10.158;2023-05-23T04:19:06;2.10;;;2.00;;
7233;SDS011;3658;47.992;10.158;2023-05-23T04:21:34;2.13;;;1.93;;
7233;SDS011;3658;47.992;10.158;2023-05-23T04:24:01;1.70;;;1.60;;
7233;SDS011;3658;47.992;10.158;2023-05-23T04:26:28;2.20;;;2.00;;
7233;SDS011;3658;47.992;10.158;2023-05-23T04:28:55;2.13;;;2.03;;
7233;SDS011;3658;47.992;10.158;2023-05-23T04:31:23;1.90;;;1.80;;
7233;SDS011;3658;47.992;10.158;2023-05-23T04:33:50;2.10;;;1.90;;
7233;SDS011;3658;47.992;10.158;2023-05-23T04:36:16;2.27;;;2.07;;
7233;SDS011;3658;47.992;10.158;2023-05-23T04:38:48;1.93;;;1.83;;
7233;SDS011;3658;47.992;10.158;2023-05-23T04:41:15;2.27;;;2.07;;
7233;SDS011;3658;47.992;10.158;2023-05-23T04:43:47;2.00;;;1.90;;
7233;SDS011;3658;47.992;10.158;2023-05-23T04:46:18;1.80;;;1.70;;
7233;SDS011;3658;47.992;10.158;2023-05-23T04:48:47;2.00;;;1.90;;
7233;SDS011;3658;47.992;10.158;2023-05-23T04:51:14;2.00;;;1.90;;
7233;SDS011;3658;47.992;10.158;2023-05-23T04:53:41;1.70;;;1.60;;
7233;SDS011;3658;47.992;10.158;2023-05-23T04:56:09;2.00;;;1.90;;
7233;SDS011;3658;47.992;10.158;2023-05-23T04:58:36;2.00;;;1.90;;
7233;SDS011;3658;47.992;10.158;2023-05-23T05:01:04;1.90;;;1.80;;
7233;SDS011;3658;47.992;10.158;2023-05-23T05:03:33;1.80;;;1.70;;
7233;SDS011;3658;47.992;10.158;2023-05-23T05:06:01;1.90;;;1.80;;
7233;SDS011;3658;47.992;10.158;2023-05-23T05:08:28;2.30;;;2.10;;
7233;SDS011;3658;47.992;10.158;2023-05-23T05:10:55;3.10;;;1.97;;
7233;SDS011;3658;47.992;10.158;2023-05-23T05:13:23;3.00;;;1.97;;
7233;SDS011;3658;47.992;10.158;2023-05-23T05:15:50;1.80;;;1.70;;
7233;SDS011;3658;47.992;10.158;2023-05-23T05:18:17;2.53;;;2.33;;
7233;SDS011;3658;47.992;10.158;2023-05-23T05:20:44;3.30;;;2.40;;
7233;SDS011;3658;47.992;10.158;2023-05-23T05:23:11;4.03;;;2.10;;
7233;SDS011;3658;47.992;10.158;2023-05-23T05:25:38;3.10;;;2.33;;
7233;SDS011;3658;47.992;10.158;2023-05-23T05:28:05;3.37;;;3.00;;
7233;SDS011;3658;47.992;10.158;2023-05-23T05:30:33;3.10;;;2.80;;
7233;SDS011;3658;47.992;10.158;2023-05-23T05:33:00;2.87;;;2.60;;
7233;SDS011;3658;47.992;10.158;2023-05-23T05:35:28;2.50;;;2.30;;
7233;SDS011;3658;47.992;10.158;2023-05-23T05:37:55;3.23;;;2.93;;
7233;SDS011;3658;47.992;10.158;2023-05-23T05:40:22;3.83;;;3.00;;
7233;SDS011;3658;47.992;10.158;2023-05-23T05:42:49;3.63;;;3.33;;
7233;SDS011;3658;47.992;10.158;2023-05-23T05:45:16;3.30;;;3.00;;
7233;SDS011;3658;47.992;10.158;2023-05-23T05:47:46;3.40;;;3.10;;
7233;SDS011;3658;47.992;10.158;2023-05-23T05:50:23;3.30;;;2.80;;
7233;SDS011;3658;47.992;10.158;2023-05-23T05:52:50;3.20;;;2.90;;
7233;SDS011;3658;47.992;10.158;2023-05-23T05:55:17;9.00;;;3.77;;
7233;SDS011;3658;47.992;10.158;2023-05-23T05:57:44;3.93;;;2.93;;
7233;SDS011;3658;47.992;10.158;2023-05-23T06:00:11;4.53;;;3.13;;
7233;SDS011;3658;47.992;10.158;2023-05-23T06:02:40;5.90;;;3.37;;
7233;SDS011;3658;47.992;10.158;2023-05-23T06:05:09;4.20;;;3.20;;
7233;SDS011;3658;47.992;10.158;2023-05-23T06:07:37;5.43;;;3.50;;
7233;SDS011;3658;47.992;10.158;2023-05-23T06:10:07;3.43;;;2.90;;
7233;SDS011;3658;47.992;10.158;2023-05-23T06:12:37;4.17;;;3.60;;
7233;SDS011;3658;47.992;10.158;2023-05-23T06:15:04;3.97;;;3.57;;
7233;SDS011;3658;47.992;10.158;2023-05-23T06:17:31;5.10;;;3.53;;
7233;SDS011;3658;47.992;10.158;2023-05-23T06:19:58;3.87;;;3.47;;
7233;SDS011;3658;47.992;10.158;2023-05-23T06:22:26;4.43;;;3.50;;
7233;SDS011;3658;47.992;10.158;2023-05-23T06:24:53;3.90;;;3.40;;
7233;SDS011;3658;47.992;10.158;2023-05-23T06:27:20;4.83;;;4.03;;
7233;SDS011;3658;47.992;10.158;2023-05-23T06:29:47;5.60;;;3.43;;
7233;SDS011;3658;47.992;10.158;2023-05-23T06:32:13;4.50;;;4.10;;
7233;SDS011;3658;47.992;10.158;2023-05-23T06:34:40;15.57;;;9.83;;
7233;SDS011;3658;47.992;10.158;2023-05-23T06:37:07;13.37;;;10.03;;
7233;SDS011;3658;47.992;10.158;2023-05-23T06:39:35;15.10;;;11.13;;
7233;SDS011;3658;47.992;10.158;2023-05-23T06:43:28;16.07;;;12.93;;
7233;SDS011;3658;47.992;10.158;2023-05-23T06:45:55;17.90;;;13.70;;
7233;SDS011;3658;47.992;10.158;2023-05-23T06:48:21;15.43;;;13.83;;
7233;SDS011;3658;47.992;10.158;2023-05-23T06:50:48;17.43;;;13.43;;
7233;SDS011;3658;47.992;10.158;2023-05-23T06:53:16;17.80;;;14.10;;
7233;SDS011;3658;47.992;10.158;2023-05-23T06:55:42;18.90;;;14.17;;
7233;SDS011;3658;47.992;10.158;2023-05-23T06:58:09;16.63;;;13.40;;
7233;SDS011;3658;47.992;10.158;2023-05-23T07:00:37;16.70;;;14.37;;
7233;SDS011;3658;47.992;10.158;2023-05-23T07:03:05;20.37;;;15.23;;
7233;SDS011;3658;47.992;10.158;2023-05-23T07:05:32;17.30;;;15.03;;
7233;SDS011;3658;47.992;10.158;2023-05-23T07:08:00;21.17;;;15.87;;
7233;SDS011;3658;47.992;10.158;2023-05-23T07:10:27;20.00;;;16.13;;
7233;SDS011;3658;47.992;10.158;2023-05-23T07:12:54;21.77;;;16.93;;
7233;SDS011;3658;47.992;10.158;2023-05-23T07:15:20;23.90;;;17.60;;
7233;SDS011;3658;47.992;10.158;2023-05-23T07:17:48;21.53;;;18.67;;
7233;SDS011;3658;47.992;10.158;2023-05-23T07:20:15;22.77;;;18.30;;
7233;SDS011;3658;47.992;10.158;2023-05-23T07:22:42;23.80;;;18.87;;
7233;SDS011;3658;47.992;10.158;2023-05-23T07:25:09;27.47;;;18.97;;
7233;SDS011;3658;47.992;10.158;2023-05-23T07:27:36;25.50;;;19.53;;
7233;SDS011;3658;47.992;10.158;2023-05-23T07:30:03;27.27;;;19.30;;
7233;SDS011;3658;47.992;10.158;2023-05-23T07:32:31;26.87;;;19.20;;
7233;SDS011;3658;47.992;10.158;2023-05-23T07:34:59;25.37;;;20.03;;
7233;SDS011;3658;47.992;10.158;2023-05-23T07:37:26;26.97;;;20.90;;
7233;SDS011;3658;47.992;10.158;2023-05-23T07:39:52;25.70;;;20.33;;
7233;SDS011;3658;47.992;10.158;2023-05-23T07:42:19;28.33;;;21.33;;
7233;SDS011;3658;47.992;10.158;2023-05-23T07:44:46;26.10;;;20.83;;
7233;SDS011;3658;47.992;10.158;2023-05-23T07:47:13;28.87;;;20.57;;
7233;SDS011;3658;47.992;10.158;2023-05-23T07:49:39;29.10;;;20.80;;
7233;SDS011;3658;47.992;10.158;2023-05-23T07:52:07;29.33;;;21.47;;
7233;SDS011;3658;47.992;10.158;2023-05-23T07:54:34;28.17;;;21.70;;
7233;SDS011;3658;47.992;10.158;2023-05-23T07:57:01;27.40;;;20.03;;
7233;SDS011;3658;47.992;10.158;2023-05-23T07:59:28;31.87;;;20.00;;
7233;SDS011;3658;47.992;10.158;2023-05-23T08:01:55;24.00;;;17.37;;
7233;SDS011;3658;47.992;10.158;2023-05-23T08:04:21;23.17;;;16.73;;
7233;SDS011;3658;47.992;10.158;2023-05-23T08:06:48;22.07;;;16.63;;
7233;SDS011;3658;47.992;10.158;2023-05-23T08:09:16;26.73;;;18.37;;
7233;SDS011;3658;47.992;10.158;2023-05-23T08:11:43;20.30;;;15.10;;
7233;SDS011;3658;47.992;10.158;2023-05-23T08:14:10;20.33;;;15.70;;
7233;SDS011;3658;47.992;10.158;2023-05-23T08:16:37;20.97;;;16.40;;
7233;SDS011;3658;47.992;10.158;2023-05-23T08:19:03;22.10;;;16.27;;
7233;SDS011;3658;47.992;10.158;2023-05-23T08:21:30;21.23;;;14.97;;
7233;SDS011;3658;47.992;10.158;2023-05-23T08:23:57;17.70;;;15.83;;
7233;SDS011;3658;47.992;10.158;2023-05-23T08:26:25;17.93;;;14.67;;
7233;SDS011;3658;47.992;10.158;2023-05-23T08:28:58;17.40;;;14.50;;
7233;SDS011;3658;47.992;10.158;2023-05-23T08:31:26;21.77;;;15.57;;
7233;SDS011;3658;47.992;10.158;2023-05-23T08:33:53;19.33;;;15.00;;
7233;SDS011;3658;47.992;10.158;2023-05-23T08:36:19;17.03;;;14.63;;
7233;SDS011;3658;47.992;10.158;2023-05-23T08:38:46;17.90;;;13.97;;
7233;SDS011;3658;47.992;10.158;2023-05-23T08:41:17;16.70;;;13.17;;
7233;SDS011;3658;47.992;10.158;2023-05-23T08:43:46;16.00;;;13.40;;
7233;SDS011;3658;47.992;10.158;2023-05-23T08:46:13;14.77;;;12.50;;
7233;SDS011;3658;47.992;10.158;2023-05-23T08:48:41;16.70;;;13.47;;
7233;SDS011;3658;47.992;10.158;2023-05-23T08:51:08;17.20;;;13.50;;
7233;SDS011;3658;47.992;10.158;2023-05-23T08:53:37;16.93;;;12.80;;
7233;SDS011;3658;47.992;10.158;2023-05-23T08:56:05;15.53;;;11.70;;
7233;SDS011;3658;47.992;10.158;2023-05-23T08:58:33;15.23;;;12.37;;
7233;SDS011;3658;47.992;10.158;2023-05-23T09:01:04;15.30;;;12.13;;
7233;SDS011;3658;47.992;10.158;2023-05-23T09:03:31;13.67;;;11.83;;
7233;SDS011;3658;47.992;10.158;2023-05-23T09:05:58;14.90;;;12.27;;
7233;SDS011;3658;47.992;10.158;2023-05-23T09:08:25;14.53;;;12.73;;
7233;SDS011;3658;47.992;10.158;2023-05-23T09:10:52;13.03;;;11.23;;
7233;SDS011;3658;47.992;10.158;2023-05-23T09:13:20;14.20;;;11.97;;
7233;SDS011;3658;47.992;10.158;2023-05-23T09:16:00;14.83;;;12.47;;
7233;SDS011;3658;47.992;10.158;2023-05-23T09:18:31;14.30;;;11.03;;
7233;SDS011;3658;47.992;10.158;2023-05-23T09:21:00;15.47;;;11.50;;
7233;SDS011;3658;47.992;10.158;2023-05-23T09:23:28;12.90;;;11.20;;
7233;SDS011;3658;47.992;10.158;2023-05-23T09:25:55;15.83;;;11.30;;
7233;SDS011;3658;47.992;10.158;2023-05-23T09:28:22;19.60;;;11.87;;
7233;SDS011;3658;47.992;10.158;2023-05-23T09:30:56;13.10;;;10.77;;
7233;SDS011;3658;47.992;10.158;2023-05-23T09:33:27;12.43;;;11.13;;
7233;SDS011;3658;47.992;10.158;2023-05-23T09:36:01;16.40;;;12.43;;
7233;SDS011;3658;47.992;10.158;2023-05-23T09:38:42;12.60;;;11.40;;
7233;SDS011;3658;47.992;10.158;2023-05-23T09:41:10;15.03;;;11.83;;
7233;SDS011;3658;47.992;10.158;2023-05-23T09:43:38;12.23;;;10.93;;
7233;SDS011;3658;47.992;10.158;2023-05-23T09:46:06;17.53;;;11.67;;
7233;SDS011;3658;47.992;10.158;2023-05-23T09:48:34;13.83;;;11.10;;
7233;SDS011;3658;47.992;10.158;2023-05-23T09:51:06;14.17;;;12.33;;
7233;SDS011;3658;47.992;10.158;2023-05-23T09:53:34;12.87;;;11.33;;
7233;SDS011;3658;47.992;10.158;2023-05-23T09:56:01;13.70;;;11.27;;
7233;SDS011;3658;47.992;10.158;2023-05-23T09:58:29;13.37;;;10.17;;
7233;SDS011;3658;47.992;10.158;2023-05-23T10:00:58;14.67;;;10.80;;
7233;SDS011;3658;47.992;10.158;2023-05-23T10:03:30;14.27;;;10.43;;
7233;SDS011;3658;47.992;10.158;2023-05-23T10:06:03;12.43;;;10.63;;
7233;SDS011;3658;47.992;10.158;2023-05-23T10:08:35;14.27;;;10.43;;
7233;SDS011;3658;47.992;10.158;2023-05-23T10:14:15;11.73;;;10.30;;
7233;SDS011;3658;47.992;10.158;2023-05-23T10:16:46;16.23;;;10.33;;
7233;SDS011;3658;47.992;10.158;2023-05-23T10:19:23;13.10;;;10.60;;
7233;SDS011;3658;47.992;10.158;2023-05-23T10:22:13;12.37;;;10.33;;
7233;SDS011;3658;47.992;10.158;2023-05-23T10:24:44;11.20;;;9.73;;
7233;SDS011;3658;47.992;10.158;2023-05-23T10:27:22;11.63;;;10.43;;
7233;SDS011;3658;47.992;10.158;2023-05-23T10:29:48;11.70;;;9.33;;
7233;SDS011;3658;47.992;10.158;2023-05-23T10:32:16;12.47;;;9.87;;
7233;SDS011;3658;47.992;10.158;2023-05-23T10:34:46;13.07;;;10.13;;
7233;SDS011;3658;47.992;10.158;2023-05-23T10:37:25;11.50;;;9.90;;
7233;SDS011;3658;47.992;10.158;2023-05-23T10:39:58;11.40;;;9.00;;
7233;SDS011;3658;47.992;10.158;2023-05-23T10:42:32;12.73;;;10.23;;
7233;SDS011;3658;47.992;10.158;2023-05-23T10:45:13;10.70;;;9.30;;
7233;SDS011;3658;47.992;10.158;2023-05-23T10:47:40;16.30;;;9.23;;
7233;SDS011;3658;47.992;10.158;2023-05-23T10:50:10;9.63;;;8.63;;
7233;SDS011;3658;47.992;10.158;2023-05-23T10:52:40;10.10;;;9.00;;
7233;SDS011;3658;47.992;10.158;2023-05-23T10:55:14;11.73;;;8.97;;
7233;SDS011;3658;47.992;10.158;2023-05-23T10:57:42;12.60;;;10.87;;
7233;SDS011;3658;47.992;10.158;2023-05-23T11:00:13;12.57;;;11.10;;
7233;SDS011;3658;47.992;10.158;2023-05-23T11:02:52;15.90;;;12.57;;
7233;SDS011;3658;47.992;10.158;2023-05-23T11:05:20;16.73;;;13.60;;
7233;SDS011;3658;47.992;10.158;2023-05-23T11:10:50;26.93;;;19.73;;
7233;SDS011;3658;47.992;10.158;2023-05-23T11:13:18;26.70;;;20.67;;
7233;SDS011;3658;47.992;10.158;2023-05-23T11:15:46;26.23;;;20.17;;
7233;SDS011;3658;47.992;10.158;2023-05-23T11:18:20;31.10;;;20.30;;
7233;SDS011;3658;47.992;10.158;2023-05-23T11:20:48;24.63;;;19.03;;
7233;SDS011;3658;47.992;10.158;2023-05-23T11:23:19;26.43;;;18.27;;
7233;SDS011;3658;47.992;10.158;2023-05-23T11:25:47;23.97;;;18.10;;
7233;SDS011;3658;47.992;10.158;2023-05-23T11:28:15;21.50;;;16.23;;
7233;SDS011;3658;47.992;10.158;2023-05-23T11:30:42;21.63;;;16.67;;
7233;SDS011;3658;47.992;10.158;2023-05-23T11:33:12;17.67;;;14.83;;
7233;SDS011;3658;47.992;10.158;2023-05-23T11:35:41;17.20;;;14.37;;
7233;SDS011;3658;47.992;10.158;2023-05-23T11:38:08;22.50;;;18.43;;
7233;SDS011;3658;47.992;10.158;2023-05-23T11:40:38;26.77;;;20.63;;
7233;SDS011;3658;47.992;10.158;2023-05-23T11:43:06;23.00;;;19.23;;
7233;SDS011;3658;47.992;10.158;2023-05-23T11:45:35;24.83;;;18.80;;
7233;SDS011;3658;47.992;10.158;2023-05-23T11:48:03;22.03;;;18.67;;
7233;SDS011;3658;47.992;10.158;2023-05-23T11:50:31;21.37;;;17.23;;
7233;SDS011;3658;47.992;10.158;2023-05-23T11:52:58;19.83;;;17.27;;
7233;SDS011;3658;47.992;10.158;2023-05-23T11:55:27;21.80;;;17.33;;
7233;SDS011;3658;47.992;10.158;2023-05-23T11:58:05;19.67;;;16.00;;
7233;SDS011;3658;47.992;10.158;2023-05-23T12:00:32;21.40;;;15.80;;
7233;SDS011;3658;47.992;10.158;2023-05-23T12:03:02;20.13;;;16.33;;
7233;SDS011;3658;47.992;10.158;2023-05-23T12:05:32;19.17;;;15.40;;
7233;SDS011;3658;47.992;10.158;2023-05-23T12:07:59;17.17;;;14.80;;
7233;SDS011;3658;47.992;10.158;2023-05-23T12:10:26;16.90;;;14.30;;
7233;SDS011;3658;47.992;10.158;2023-05-23T12:12:53;17.13;;;14.47;;
7233;SDS011;3658;47.992;10.158;2023-05-23T12:15:25;19.07;;;14.07;;
7233;SDS011;3658;47.992;10.158;2023-05-23T12:17:53;15.40;;;13.80;;
7233;SDS011;3658;47.992;10.158;2023-05-23T12:20:21;17.30;;;13.70;;
7233;SDS011;3658;47.992;10.158;2023-05-23T12:22:49;14.37;;;12.87;;
7233;SDS011;3658;47.992;10.158;2023-05-23T12:25:16;16.13;;;13.03;;
7233;SDS011;3658;47.992;10.158;2023-05-23T12:27:42;15.03;;;12.77;;
7233;SDS011;3658;47.992;10.158;2023-05-23T12:30:10;13.37;;;11.93;;
7233;SDS011;3658;47.992;10.158;2023-05-23T12:32:42;13.53;;;12.10;;
7233;SDS011;3658;47.992;10.158;2023-05-23T12:35:10;15.13;;;12.17;;
7233;SDS011;3658;47.992;10.158;2023-05-23T12:37:38;13.50;;;11.93;;
7233;SDS011;3658;47.992;10.158;2023-05-23T12:40:08;13.90;;;11.67;;
7233;SDS011;3658;47.992;10.158;2023-05-23T12:42:43;13.00;;;11.60;;
7233;SDS011;3658;47.992;10.158;2023-05-23T12:45:12;12.80;;;11.20;;
7233;SDS011;3658;47.992;10.158;2023-05-23T12:47:39;13.20;;;11.07;;
7233;SDS011;3658;47.992;10.158;2023-05-23T12:50:08;12.10;;;10.90;;
7233;SDS011;3658;47.992;10.158;2023-05-23T12:52:36;13.03;;;11.57;;
7233;SDS011;3658;47.992;10.158;2023-05-23T12:55:04;12.07;;;10.83;;
7233;SDS011;3658;47.992;10.158;2023-05-23T12:57:32;11.90;;;10.73;;
7233;SDS011;3658;47.992;10.158;2023-05-23T13:00:00;11.90;;;10.70;;
7233;SDS011;3658;47.992;10.158;2023-05-23T13:02:27;11.57;;;10.20;;
7233;SDS011;3658;47.992;10.158;2023-05-23T13:04:55;14.20;;;10.37;;
7233;SDS011;3658;47.992;10.158;2023-05-23T13:07:22;12.53;;;10.27;;
7233;SDS011;3658;47.992;10.158;2023-05-23T13:09:49;11.70;;;10.50;;
7233;SDS011;3658;47.992;10.158;2023-05-23T13:12:15;12.10;;;10.80;;
7233;SDS011;3658;47.992;10.158;2023-05-23T13:14:43;11.07;;;9.80;;
7233;SDS011;3658;47.992;10.158;2023-05-23T13:17:10;13.03;;;10.60;;
7233;SDS011;3658;47.992;10.158;2023-05-23T13:19:37;15.17;;;11.83;;
7233;SDS011;3658;47.992;10.158;2023-05-23T13:22:06;14.70;;;11.00;;
7233;SDS011;3658;47.992;10.158;2023-05-23T13:24:34;13.67;;;12.23;;
7233;SDS011;3658;47.992;10.158;2023-05-23T13:27:01;13.83;;;11.33;;
7233;SDS011;3658;47.992;10.158;2023-05-23T13:29:29;13.30;;;11.73;;
7233;SDS011;3658;47.992;10.158;2023-05-23T13:31:56;18.43;;;11.17;;
7233;SDS011;3658;47.992;10.158;2023-05-23T13:34:22;13.00;;;11.33;;
7233;SDS011;3658;47.992;10.158;2023-05-23T13:36:50;12.47;;;11.17;;
7233;SDS011;3658;47.992;10.158;2023-05-23T13:39:18;12.70;;;11.40;;
7233;SDS011;3658;47.992;10.158;2023-05-23T13:41:46;12.10;;;10.90;;
7233;SDS011;3658;47.992;10.158;2023-05-23T13:44:13;14.17;;;11.80;;
7233;SDS011;3658;47.992;10.158;2023-05-23T13:46:41;15.17;;;12.83;;
7233;SDS011;3658;47.992;10.158;2023-05-23T13:49:08;15.00;;;11.83;;
7233;SDS011;3658;47.992;10.158;2023-05-23T13:51:35;16.17;;;11.47;;
7233;SDS011;3658;47.992;10.158;2023-05-23T13:54:02;13.30;;;10.50;;
7233;SDS011;3658;47.992;10.158;2023-05-23T13:56:30;12.50;;;11.20;;
7233;SDS011;3658;47.992;10.158;2023-05-23T13:58:57;13.47;;;11.90;;
7233;SDS011;3658;47.992;10.158;2023-05-23T14:01:24;13.70;;;11.50;;
7233;SDS011;3658;47.992;10.158;2023-05-23T14:03:51;12.03;;;10.73;;
7233;SDS011;3658;47.992;10.158;2023-05-23T14:06:18;14.07;;;10.37;;
7233;SDS011;3658;47.992;10.158;2023-05-23T14:08:45;13.00;;;10.20;;
7233;SDS011;3658;47.992;10.158;2023-05-23T14:11:12;12.37;;;10.27;;
7233;SDS011;3658;47.992;10.158;2023-05-23T14:13:40;12.07;;;10.33;;
7233;SDS011;3658;47.992;10.158;2023-05-23T14:16:07;14.53;;;10.13;;
7233;SDS011;3658;47.992;10.158;2023-05-23T14:18:34;15.70;;;10.53;;
7233;SDS011;3658;47.992;10.158;2023-05-23T14:21:00;14.10;;;9.90;;
7233;SDS011;3658;47.992;10.158;2023-05-23T14:23:27;12.83;;;9.43;;
7233;SDS011;3658;47.992;10.158;2023-05-23T14:25:55;24.70;;;10.53;;
7233;SDS011;3658;47.992;10.158;2023-05-23T14:28:32;17.37;;;9.80;;
7233;SDS011;3658;47.992;10.158;2023-05-23T14:31:00;22.23;;;10.57;;
7233;SDS011;3658;47.992;10.158;2023-05-23T14:33:28;19.20;;;10.97;;
7233;SDS011;3658;47.992;10.158;2023-05-23T14:35:56;18.20;;;9.83;;
7233;SDS011;3658;47.992;10.158;2023-05-23T14:38:22;22.57;;;9.77;;
7233;SDS011;3658;47.992;10.158;2023-05-23T14:40:50;20.00;;;9.87;;
7233;SDS011;3658;47.992;10.158;2023-05-23T14:43:19;16.93;;;10.20;;
7233;SDS011;3658;47.992;10.158;2023-05-23T14:45:56;20.23;;;9.47;;
7233;SDS011;3658;47.992;10.158;2023-05-23T14:48:25;15.70;;;9.63;;
7233;SDS011;3658;47.992;10.158;2023-05-23T14:50:52;15.23;;;9.80;;
7233;SDS011;3658;47.992;10.158;2023-05-23T14:53:19;19.33;;;9.63;;
7233;SDS011;3658;47.992;10.158;2023-05-23T14:55:47;14.57;;;9.10;;
7233;SDS011;3658;47.992;10.158;2023-05-23T14:58:14;13.87;;;8.60;;
7233;SDS011;3658;47.992;10.158;2023-05-23T15:00:42;16.77;;;8.13;;
7233;SDS011;3658;47.992;10.158;2023-05-23T15:03:11;14.87;;;9.33;;